sensor_id;sensor_type;location;lat;lon;timestamp;pressure;altitude;pressure_sealevel;temperature;humidity
61874;BME280;49692;55.052;73.310;2022-09-09T00:00:17;100499.50;;;9.89;78.08
61874;BME280;49692;55.052;73.310;2022-09-09T00:03:34;100489.25;;;9.79;78.38
61874;BME280;49692;55.052;73.310;2022-09-09T00:05:45;100490.78;;;9.87;77.88
61874;BME280;49692;55.052;73.310;2022-09-09T00:08:22;100497.09;;;9.81;78.57
61874;BME280;49692;55.052;73.310;2022-09-09T00:11:00;100495.19;;;9.86;78.27
61874;BME280;49692;55.052;73.310;2022-09-09T00:13:43;100498.81;;;9.82;78.49
61874;BME280;49692;55.052;73.310;2022-09-09T00:19:07;100506.69;;;9.82;77.95
61874;BME280;49692;55.052;73.310;2022-09-09T00:21:56;100501.56;;;9.77;78.90
61874;BME280;49692;55.052;73.310;2022-09-09T00:24:45;100500.00;;;9.70;77.85
61874;BME280;49692;55.052;73.310;2022-09-09T00:30:13;100503.16;;;9.51;78.39
61874;BME280;49692;55.052;73.310;2022-09-09T00:32:41;100500.91;;;9.36;78.10
61874;BME280;49692;55.052;73.310;2022-09-09T00:35:24;100499.88;;;9.40;78.50
61874;BME280;49692;55.052;73.310;2022-09-09T00:37:54;100495.91;;;9.25;79.19
61874;BME280;49692;55.052;73.310;2022-09-09T00:40:29;100505.63;;;9.21;79.05
61874;BME280;49692;55.052;73.310;2022-09-09T00:43:35;100496.06;;;9.19;79.57
61874;BME280;49692;55.052;73.310;2022-09-09T00:49:13;100499.63;;;9.16;79.22
61874;BME280;49692;55.052;73.310;2022-09-09T00:52:24;100492.72;;;9.14;79.83
61874;BME280;49692;55.052;73.310;2022-09-09T00:55:19;100494.84;;;8.98;80.13
61874;BME280;49692;55.052;73.310;2022-09-09T00:57:51;100491.63;;;8.86;80.93
61874;BME280;49692;55.052;73.310;2022-09-09T01:00:45;100489.06;;;8.85;80.94
61874;BME280;49692;55.052;73.310;2022-09-09T01:03:31;100492.78;;;8.74;81.24
61874;BME280;49692;55.052;73.310;2022-09-09T01:06:36;100478.63;;;8.82;80.92
61874;BME280;49692;55.052;73.310;2022-09-09T01:14:48;100486.63;;;8.77;81.53
61874;BME280;49692;55.052;73.310;2022-09-09T01:20:17;100481.25;;;8.82;81.67
61874;BME280;49692;55.052;73.310;2022-09-09T01:26:15;100481.19;;;8.85;82.55
61874;BME280;49692;55.052;73.310;2022-09-09T01:28:49;100491.69;;;8.85;82.67
61874;BME280;49692;55.052;73.310;2022-09-09T01:31:37;100493.13;;;8.97;82.36
61874;BME280;49692;55.052;73.310;2022-09-09T01:34:16;100493.28;;;8.90;82.22
61874;BME280;49692;55.052;73.310;2022-09-09T01:37:02;100501.41;;;9.16;81.44
61874;BME280;49692;55.052;73.310;2022-09-09T01:39:35;100499.75;;;9.12;81.64
61874;BME280;49692;55.052;73.310;2022-09-09T01:42:09;100509.03;;;9.25;81.55
61874;BME280;49692;55.052;73.310;2022-09-09T01:44:44;100502.06;;;9.24;81.09
61874;BME280;49692;55.052;73.310;2022-09-09T01:47:12;100509.81;;;9.29;80.99
61874;BME280;49692;55.052;73.310;2022-09-09T01:49:59;100505.13;;;9.42;80.36
61874;BME280;49692;55.052;73.310;2022-09-09T01:52:30;100515.47;;;9.48;79.86
61874;BME280;49692;55.052;73.310;2022-09-09T01:54:57;100509.47;;;9.43;80.18
61874;BME280;49692;55.052;73.310;2022-09-09T01:57:34;100516.78;;;9.64;79.93
61874;BME280;49692;55.052;73.310;2022-09-09T02:00:11;100518.44;;;9.68;78.38
61874;BME280;49692;55.052;73.310;2022-09-09T02:03:22;100512.28;;;9.69;79.08
61874;BME280;49692;55.052;73.310;2022-09-09T02:06:00;100514.25;;;9.61;78.22
61874;BME280;49692;55.052;73.310;2022-09-09T02:08:49;100505.69;;;9.86;77.29
61874;BME280;49692;55.052;73.310;2022-09-09T02:11:18;100509.22;;;9.85;77.92
61874;BME280;49692;55.052;73.310;2022-09-09T02:14:18;100503.69;;;9.96;77.21
61874;BME280;49692;55.052;73.310;2022-09-09T02:17:13;100494.00;;;9.98;77.31
61874;BME280;49692;55.052;73.310;2022-09-09T02:20:02;100504.50;;;9.98;77.82
61874;BME280;49692;55.052;73.310;2022-09-09T02:22:41;100507.06;;;9.99;77.22
61874;BME280;49692;55.052;73.310;2022-09-09T02:25:15;100501.81;;;9.99;77.12
61874;BME280;49692;55.052;73.310;2022-09-09T02:27:45;100504.44;;;9.99;77.30
61874;BME280;49692;55.052;73.310;2022-09-09T02:30:15;100512.38;;;9.98;76.88
61874;BME280;49692;55.052;73.310;2022-09-09T02:32:50;100509.75;;;9.98;76.68
61874;BME280;49692;55.052;73.310;2022-09-09T02:35:23;100510.53;;;10.02;76.42
61874;BME280;49692;55.052;73.310;2022-09-09T02:37:53;100503.41;;;10.05;75.84
61874;BME280;49692;55.052;73.310;2022-09-09T02:40:23;100505.34;;;9.98;76.67
61874;BME280;49692;55.052;73.310;2022-09-09T02:42:57;100500.91;;;10.00;76.95
61874;BME280;49692;55.052;73.310;2022-09-09T02:45:36;100498.66;;;10.18;75.93
61874;BME280;49692;55.052;73.310;2022-09-09T02:48:27;100495.84;;;10.24;75.95
61874;BME280;49692;55.052;73.310;2022-09-09T02:56:52;100503.13;;;10.44;75.56
61874;BME280;49692;55.052;73.310;2022-09-09T02:59:26;100501.19;;;10.51;74.83
61874;BME280;49692;55.052;73.310;2022-09-09T03:01:59;100495.69;;;10.59;74.12
61874;BME280;49692;55.052;73.310;2022-09-09T03:04:27;100502.53;;;10.63;73.61
61874;BME280;49692;55.052;73.310;2022-09-09T03:06:54;100493.41;;;10.75;72.51
61874;BME280;49692;55.052;73.310;2022-09-09T03:09:31;100492.19;;;10.85;72.68
61874;BME280;49692;55.052;73.310;2022-09-09T03:11:58;100486.69;;;10.93;72.04
61874;BME280;49692;55.052;73.310;2022-09-09T03:14:28;100492.50;;;11.03;71.56
61874;BME280;49692;55.052;73.310;2022-09-09T03:17:02;100498.50;;;11.08;71.49
61874;BME280;49692;55.052;73.310;2022-09-09T03:19:37;100497.41;;;11.14;71.18
61874;BME280;49692;55.052;73.310;2022-09-09T03:22:07;100491.75;;;11.26;70.34
61874;BME280;49692;55.052;73.310;2022-09-09T03:24:36;100488.09;;;11.30;70.04
61874;BME280;49692;55.052;73.310;2022-09-09T03:27:15;100494.59;;;11.47;69.77
61874;BME280;49692;55.052;73.310;2022-09-09T03:29:43;100486.41;;;11.55;70.30
61874;BME280;49692;55.052;73.310;2022-09-09T03:32:17;100493.88;;;11.67;69.92
61874;BME280;49692;55.052;73.310;2022-09-09T03:34:44;100480.34;;;11.76;68.92
61874;BME280;49692;55.052;73.310;2022-09-09T03:37:23;100481.06;;;11.81;69.20
61874;BME280;49692;55.052;73.310;2022-09-09T03:39:51;100480.72;;;11.91;68.31
61874;BME280;49692;55.052;73.310;2022-09-09T03:42:21;100484.59;;;12.04;67.18
61874;BME280;49692;55.052;73.310;2022-09-09T03:44:51;100484.16;;;12.17;67.04
61874;BME280;49692;55.052;73.310;2022-09-09T03:47:21;100484.81;;;12.22;67.87
61874;BME280;49692;55.052;73.310;2022-09-09T03:49:51;100484.38;;;12.34;67.37
61874;BME280;49692;55.052;73.310;2022-09-09T03:52:25;100488.38;;;12.44;67.30
61874;BME280;49692;55.052;73.310;2022-09-09T03:54:54;100481.56;;;12.61;65.98
61874;BME280;49692;55.052;73.310;2022-09-09T03:57:31;100483.59;;;12.54;66.91
61874;BME280;49692;55.052;73.310;2022-09-09T04:00:13;100476.72;;;12.72;66.87
61874;BME280;49692;55.052;73.310;2022-09-09T04:02:45;100487.97;;;12.76;66.60
61874;BME280;49692;55.052;73.310;2022-09-09T04:05:15;100479.03;;;12.80;65.83
61874;BME280;49692;55.052;73.310;2022-09-09T04:07:43;100486.31;;;12.96;65.01
61874;BME280;49692;55.052;73.310;2022-09-09T04:10:11;100481.25;;;12.91;64.12
61874;BME280;49692;55.052;73.310;2022-09-09T04:12:44;100488.56;;;13.07;64.09
61874;BME280;49692;55.052;73.310;2022-09-09T04:15:22;100488.81;;;13.21;64.80
61874;BME280;49692;55.052;73.310;2022-09-09T04:17:49;100483.78;;;13.15;66.04
61874;BME280;49692;55.052;73.310;2022-09-09T04:20:17;100477.34;;;13.22;65.14
61874;BME280;49692;55.052;73.310;2022-09-09T04:22:45;100488.38;;;13.32;64.79
61874;BME280;49692;55.052;73.310;2022-09-09T04:25:13;100490.72;;;13.38;65.32
61874;BME280;49692;55.052;73.310;2022-09-09T04:27:41;100485.25;;;13.43;64.73
61874;BME280;49692;55.052;73.310;2022-09-09T04:30:12;100488.31;;;13.54;64.76
61874;BME280;49692;55.052;73.310;2022-09-09T04:32:53;100492.63;;;13.76;62.17
61874;BME280;49692;55.052;73.310;2022-09-09T04:35:23;100490.88;;;13.95;60.49
61874;BME280;49692;55.052;73.310;2022-09-09T04:37:54;100494.03;;;14.23;60.42
61874;BME280;49692;55.052;73.310;2022-09-09T04:40:31;100491.44;;;14.21;59.80
61874;BME280;49692;55.052;73.310;2022-09-09T04:43:01;100489.75;;;14.59;58.24
61874;BME280;49692;55.052;73.310;2022-09-09T04:45:31;100481.09;;;14.55;57.80
61874;BME280;49692;55.052;73.310;2022-09-09T04:48:00;100489.16;;;14.71;56.56
61874;BME280;49692;55.052;73.310;2022-09-09T04:50:29;100482.50;;;14.99;55.36
61874;BME280;49692;55.052;73.310;2022-09-09T04:53:03;100468.53;;;15.30;55.16
61874;BME280;49692;55.052;73.310;2022-09-09T04:55:34;100481.91;;;15.62;54.06
61874;BME280;49692;55.052;73.310;2022-09-09T04:58:05;100475.75;;;15.80;52.99
61874;BME280;49692;55.052;73.310;2022-09-09T05:00:36;100477.91;;;15.89;53.58
61874;BME280;49692;55.052;73.310;2022-09-09T05:03:07;100479.50;;;15.58;53.06
61874;BME280;49692;55.052;73.310;2022-09-09T05:05:36;100470.00;;;15.54;53.19
61874;BME280;49692;55.052;73.310;2022-09-09T05:08:12;100470.03;;;15.36;54.19
61874;BME280;49692;55.052;73.310;2022-09-09T05:10:41;100468.94;;;15.23;53.69
61874;BME280;49692;55.052;73.310;2022-09-09T05:13:12;100454.16;;;15.36;53.88
61874;BME280;49692;55.052;73.310;2022-09-09T05:15:42;100443.63;;;15.17;54.07
61874;BME280;49692;55.052;73.310;2022-09-09T05:18:10;100452.50;;;15.33;53.42
61874;BME280;49692;55.052;73.310;2022-09-09T05:20:42;100455.69;;;15.23;52.94
61874;BME280;49692;55.052;73.310;2022-09-09T05:23:17;100452.06;;;15.25;53.82
61874;BME280;49692;55.052;73.310;2022-09-09T05:25:59;100456.94;;;15.33;53.61
61874;BME280;49692;55.052;73.310;2022-09-09T05:28:26;100440.91;;;15.36;53.08
61874;BME280;49692;55.052;73.310;2022-09-09T05:31:04;100437.38;;;15.36;54.26
61874;BME280;49692;55.052;73.310;2022-09-09T05:33:53;100433.75;;;15.21;53.01
61874;BME280;49692;55.052;73.310;2022-09-09T05:36:25;100435.63;;;15.36;53.54
61874;BME280;49692;55.052;73.310;2022-09-09T05:38:55;100433.13;;;15.33;52.01
61874;BME280;49692;55.052;73.310;2022-09-09T05:41:25;100435.56;;;15.54;52.48
61874;BME280;49692;55.052;73.310;2022-09-09T05:44:05;100441.47;;;15.59;52.64
61874;BME280;49692;55.052;73.310;2022-09-09T05:46:37;100431.91;;;15.74;51.41
61874;BME280;49692;55.052;73.310;2022-09-09T05:49:12;100442.88;;;15.66;49.73
61874;BME280;49692;55.052;73.310;2022-09-09T05:51:40;100455.91;;;15.53;51.58
61874;BME280;49692;55.052;73.310;2022-09-09T05:54:11;100465.97;;;15.29;52.18
61874;BME280;49692;55.052;73.310;2022-09-09T05:56:52;100463.34;;;15.29;52.75
61874;BME280;49692;55.052;73.310;2022-09-09T05:59:20;100473.00;;;15.12;53.39
61874;BME280;49692;55.052;73.310;2022-09-09T06:01:47;100468.78;;;15.26;53.19
61874;BME280;49692;55.052;73.310;2022-09-09T06:04:22;100464.41;;;15.42;53.41
61874;BME280;49692;55.052;73.310;2022-09-09T06:06:51;100457.41;;;15.41;54.48
61874;BME280;49692;55.052;73.310;2022-09-09T06:09:27;100446.63;;;15.62;53.72
61874;BME280;49692;55.052;73.310;2022-09-09T06:11:57;100449.72;;;15.53;55.48
61874;BME280;49692;55.052;73.310;2022-09-09T06:14:25;100440.28;;;15.64;54.50
61874;BME280;49692;55.052;73.310;2022-09-09T06:16:56;100438.91;;;15.91;53.52
61874;BME280;49692;55.052;73.310;2022-09-09T06:19:34;100436.28;;;16.07;53.89
61874;BME280;49692;55.052;73.310;2022-09-09T06:22:03;100431.25;;;16.18;52.99
61874;BME280;49692;55.052;73.310;2022-09-09T06:24:41;100432.09;;;16.19;51.21
61874;BME280;49692;55.052;73.310;2022-09-09T06:27:17;100416.84;;;16.38;50.48
61874;BME280;49692;55.052;73.310;2022-09-09T06:29:56;100408.03;;;16.38;52.01
61874;BME280;49692;55.052;73.310;2022-09-09T06:32:29;100414.81;;;16.28;51.87
61874;BME280;49692;55.052;73.310;2022-09-09T06:34:56;100408.28;;;16.01;51.44
61874;BME280;49692;55.052;73.310;2022-09-09T06:37:28;100398.31;;;16.06;51.54
61874;BME280;49692;55.052;73.310;2022-09-09T06:39:55;100399.84;;;16.11;52.62
61874;BME280;49692;55.052;73.310;2022-09-09T06:42:24;100405.38;;;16.06;50.49
61874;BME280;49692;55.052;73.310;2022-09-09T06:45:06;100398.06;;;15.95;50.41
61874;BME280;49692;55.052;73.310;2022-09-09T06:47:49;100387.44;;;16.11;50.88
61874;BME280;49692;55.052;73.310;2022-09-09T06:50:28;100380.16;;;15.99;52.02
61874;BME280;49692;55.052;73.310;2022-09-09T06:52:56;100364.22;;;16.31;50.93
61874;BME280;49692;55.052;73.310;2022-09-09T06:55:23;100364.13;;;16.32;49.51
61874;BME280;49692;55.052;73.310;2022-09-09T06:57:52;100361.31;;;16.96;48.51
61874;BME280;49692;55.052;73.310;2022-09-09T07:00:29;100342.56;;;17.28;48.27
61874;BME280;49692;55.052;73.310;2022-09-09T07:02:57;100335.16;;;17.19;47.31
61874;BME280;49692;55.052;73.310;2022-09-09T07:05:23;100341.78;;;16.97;48.46
61874;BME280;49692;55.052;73.310;2022-09-09T07:07:55;100341.97;;;16.94;47.79
61874;BME280;49692;55.052;73.310;2022-09-09T07:10:29;100340.38;;;17.21;46.03
61874;BME280;49692;55.052;73.310;2022-09-09T07:12:58;100326.59;;;17.57;47.55
61874;BME280;49692;55.052;73.310;2022-09-09T07:15:31;100331.72;;;17.60;46.81
61874;BME280;49692;55.052;73.310;2022-09-09T07:18:09;100313.53;;;17.82;46.04
61874;BME280;49692;55.052;73.310;2022-09-09T07:20:54;100315.78;;;18.02;44.16
61874;BME280;49692;55.052;73.310;2022-09-09T07:23:27;100304.44;;;17.71;45.32
61874;BME280;49692;55.052;73.310;2022-09-09T07:25:58;100300.78;;;17.87;45.04
61874;BME280;49692;55.052;73.310;2022-09-09T07:28:39;100290.91;;;17.89;47.05
61874;BME280;49692;55.052;73.310;2022-09-09T07:31:19;100303.84;;;17.95;43.31
61874;BME280;49692;55.052;73.310;2022-09-09T07:33:53;100294.69;;;17.57;43.34
61874;BME280;49692;55.052;73.310;2022-09-09T07:36:25;100281.28;;;17.59;43.26
61874;BME280;49692;55.052;73.310;2022-09-09T07:39:14;100287.41;;;17.46;42.70
61874;BME280;49692;55.052;73.310;2022-09-09T07:41:47;100287.88;;;17.53;44.24
61874;BME280;49692;55.052;73.310;2022-09-09T07:44:27;100271.91;;;17.53;44.40
61874;BME280;49692;55.052;73.310;2022-09-09T07:47:09;100263.25;;;17.64;43.32
61874;BME280;49692;55.052;73.310;2022-09-09T07:49:41;100272.34;;;17.74;43.51
61874;BME280;49692;55.052;73.310;2022-09-09T07:52:08;100265.41;;;17.72;43.57
61874;BME280;49692;55.052;73.310;2022-09-09T07:54:38;100260.41;;;17.67;43.70
61874;BME280;49692;55.052;73.310;2022-09-09T07:57:17;100257.31;;;17.73;43.10
61874;BME280;49692;55.052;73.310;2022-09-09T07:59:44;100246.94;;;17.83;42.10
61874;BME280;49692;55.052;73.310;2022-09-09T08:02:13;100236.84;;;18.03;41.51
61874;BME280;49692;55.052;73.310;2022-09-09T08:04:40;100236.38;;;18.24;40.68
61874;BME280;49692;55.052;73.310;2022-09-09T08:07:14;100234.13;;;18.43;42.77
61874;BME280;49692;55.052;73.310;2022-09-09T08:09:52;100231.16;;;18.35;40.57
61874;BME280;49692;55.052;73.310;2022-09-09T08:12:25;100223.66;;;18.14;40.00
61874;BME280;49692;55.052;73.310;2022-09-09T08:14:55;100232.97;;;18.47;39.28
61874;BME280;49692;55.052;73.310;2022-09-09T08:17:22;100215.28;;;18.46;38.29
61874;BME280;49692;55.052;73.310;2022-09-09T08:19:48;100218.25;;;18.93;39.55
61874;BME280;49692;55.052;73.310;2022-09-09T08:22:20;100219.56;;;19.01;39.54
61874;BME280;49692;55.052;73.310;2022-09-09T08:24:50;100214.53;;;18.70;37.92
61874;BME280;49692;55.052;73.310;2022-09-09T08:27:24;100204.28;;;18.90;37.94
61874;BME280;49692;55.052;73.310;2022-09-09T08:29:53;100201.75;;;18.88;39.34
61874;BME280;49692;55.052;73.310;2022-09-09T08:32:21;100193.88;;;19.00;39.48
61874;BME280;49692;55.052;73.310;2022-09-09T08:34:51;100186.94;;;18.97;39.45
61874;BME280;49692;55.052;73.310;2022-09-09T08:37:24;100196.81;;;19.08;39.01
61874;BME280;49692;55.052;73.310;2022-09-09T08:39:51;100188.53;;;18.87;39.08
61874;BME280;49692;55.052;73.310;2022-09-09T08:42:40;100173.91;;;19.18;38.68
61874;BME280;49692;55.052;73.310;2022-09-09T08:45:25;100165.44;;;19.24;38.19
61874;BME280;49692;55.052;73.310;2022-09-09T08:48:37;100180.22;;;19.04;38.56
61874;BME280;49692;55.052;73.310;2022-09-09T08:51:08;100170.97;;;18.84;37.80
61874;BME280;49692;55.052;73.310;2022-09-09T08:53:44;100167.03;;;19.03;38.67
61874;BME280;49692;55.052;73.310;2022-09-09T08:56:16;100172.28;;;19.16;37.75
61874;BME280;49692;55.052;73.310;2022-09-09T08:58:53;100152.25;;;19.23;37.66
61874;BME280;49692;55.052;73.310;2022-09-09T09:02:00;100164.66;;;19.35;37.35
61874;BME280;49692;55.052;73.310;2022-09-09T09:05:09;100156.97;;;19.19;38.38
61874;BME280;49692;55.052;73.310;2022-09-09T09:12:58;100144.47;;;19.20;37.18
61874;BME280;49692;55.052;73.310;2022-09-09T09:15:40;100129.63;;;19.28;36.25
61874;BME280;49692;55.052;73.310;2022-09-09T09:18:17;100131.75;;;19.23;37.06
61874;BME280;49692;55.052;73.310;2022-09-09T09:21:01;100128.84;;;19.39;37.12
61874;BME280;49692;55.052;73.310;2022-09-09T09:23:44;100131.84;;;19.59;36.01
61874;BME280;49692;55.052;73.310;2022-09-09T09:26:21;100123.88;;;19.70;37.03
61874;BME280;49692;55.052;73.310;2022-09-09T09:28:54;100133.56;;;19.71;36.84
61874;BME280;49692;55.052;73.310;2022-09-09T09:31:23;100124.03;;;19.80;35.34
61874;BME280;49692;55.052;73.310;2022-09-09T09:33:55;100115.16;;;19.80;36.45
61874;BME280;49692;55.052;73.310;2022-09-09T09:36:42;100115.38;;;19.77;35.40
61874;BME280;49692;55.052;73.310;2022-09-09T09:39:33;100107.00;;;19.70;32.67
61874;BME280;49692;55.052;73.310;2022-09-09T09:42:13;100106.38;;;19.66;33.92
61874;BME280;49692;55.052;73.310;2022-09-09T09:44:43;100106.31;;;19.43;33.11
61874;BME280;49692;55.052;73.310;2022-09-09T09:47:19;100096.31;;;19.34;34.19
61874;BME280;49692;55.052;73.310;2022-09-09T09:49:56;100089.41;;;19.32;34.14
61874;BME280;49692;55.052;73.310;2022-09-09T09:52:31;100086.81;;;19.19;34.95
61874;BME280;49692;55.052;73.310;2022-09-09T09:55:16;100095.13;;;19.38;34.79
61874;BME280;49692;55.052;73.310;2022-09-09T09:57:51;100087.50;;;19.34;35.54
61874;BME280;49692;55.052;73.310;2022-09-09T10:00:21;100085.41;;;19.26;37.47
61874;BME280;49692;55.052;73.310;2022-09-09T10:03:00;100082.69;;;19.15;35.75
61874;BME280;49692;55.052;73.310;2022-09-09T10:05:32;100079.84;;;19.05;36.13
61874;BME280;49692;55.052;73.310;2022-09-09T10:08:14;100076.09;;;19.07;36.50
61874;BME280;49692;55.052;73.310;2022-09-09T10:13:58;100071.94;;;19.03;36.01
61874;BME280;49692;55.052;73.310;2022-09-09T10:16:37;100065.16;;;18.99;36.80
61874;BME280;49692;55.052;73.310;2022-09-09T10:19:12;100071.53;;;18.96;36.20
61874;BME280;49692;55.052;73.310;2022-09-09T10:35:34;100063.31;;;19.48;34.88
61874;BME280;49692;55.052;73.310;2022-09-09T10:41:50;100055.63;;;19.68;35.45
61874;BME280;49692;55.052;73.310;2022-09-09T10:44:21;100072.50;;;19.91;34.16
61874;BME280;49692;55.052;73.310;2022-09-09T10:55:20;100061.81;;;19.80;34.56
61874;BME280;49692;55.052;73.310;2022-09-09T10:57:54;100058.50;;;19.65;33.81
61874;BME280;49692;55.052;73.310;2022-09-09T11:00:37;100072.69;;;19.77;33.27
61874;BME280;49692;55.052;73.310;2022-09-09T11:03:30;100070.84;;;20.01;32.97
61874;BME280;49692;55.052;73.310;2022-09-09T11:06:19;100075.41;;;19.88;33.93
61874;BME280;49692;55.052;73.310;2022-09-09T11:08:47;100062.28;;;19.73;34.35
61874;BME280;49692;55.052;73.310;2022-09-09T11:11:26;100068.34;;;19.76;34.66
61874;BME280;49692;55.052;73.310;2022-09-09T11:14:02;100061.41;;;19.62;34.44
61874;BME280;49692;55.052;73.310;2022-09-09T11:16:40;100065.44;;;19.32;35.48
61874;BME280;49692;55.052;73.310;2022-09-09T11:19:14;100058.28;;;19.32;35.13
61874;BME280;49692;55.052;73.310;2022-09-09T11:21:49;100062.00;;;20.46;33.23
61874;BME280;49692;55.052;73.310;2022-09-09T11:24:44;100061.16;;;21.13;31.52
61874;BME280;49692;55.052;73.310;2022-09-09T11:27:25;100061.53;;;22.04;30.66
61874;BME280;49692;55.052;73.310;2022-09-09T11:30:20;100067.88;;;21.61;31.42
61874;BME280;49692;55.052;73.310;2022-09-09T11:33:11;100067.78;;;20.74;32.42
61874;BME280;49692;55.052;73.310;2022-09-09T11:39:56;100068.31;;;20.34;32.80
61874;BME280;49692;55.052;73.310;2022-09-09T11:43:13;100067.00;;;20.51;32.91
61874;BME280;49692;55.052;73.310;2022-09-09T11:45:42;100067.97;;;20.27;33.08
61874;BME280;49692;55.052;73.310;2022-09-09T11:48:44;100080.13;;;19.84;32.29
61874;BME280;49692;55.052;73.310;2022-09-09T11:51:24;100069.13;;;19.89;32.07
61874;BME280;49692;55.052;73.310;2022-09-09T11:54:25;100072.19;;;20.30;31.45
61874;BME280;49692;55.052;73.310;2022-09-09T11:56:48;100082.50;;;20.57;31.54
61874;BME280;49692;55.052;73.310;2022-09-09T11:59:30;100065.50;;;20.70;30.18
61874;BME280;49692;55.052;73.310;2022-09-09T12:02:14;100081.03;;;20.53;31.38
61874;BME280;49692;55.052;73.310;2022-09-09T12:04:54;100072.31;;;20.62;31.25
61874;BME280;49692;55.052;73.310;2022-09-09T12:07:41;100074.03;;;20.18;32.01
61874;BME280;49692;55.052;73.310;2022-09-09T12:10:40;100076.91;;;19.56;32.52
61874;BME280;49692;55.052;73.310;2022-09-09T12:13:23;100081.13;;;19.23;33.04
61874;BME280;49692;55.052;73.310;2022-09-09T12:16:37;100072.13;;;19.13;33.80
61874;BME280;49692;55.052;73.310;2022-09-09T12:19:33;100073.84;;;18.77;34.41
61874;BME280;49692;55.052;73.310;2022-09-09T12:22:16;100078.31;;;18.76;34.73
61874;BME280;49692;55.052;73.310;2022-09-09T12:25:04;100070.50;;;18.86;35.10
61874;BME280;49692;55.052;73.310;2022-09-09T12:27:45;100065.44;;;19.07;34.09
61874;BME280;49692;55.052;73.310;2022-09-09T12:30:18;100070.88;;;19.30;33.99
61874;BME280;49692;55.052;73.310;2022-09-09T12:32:47;100081.34;;;18.96;34.14
61874;BME280;49692;55.052;73.310;2022-09-09T12:35:28;100064.63;;;19.42;33.91
61874;BME280;49692;55.052;73.310;2022-09-09T12:38:02;100062.91;;;19.06;34.65
61874;BME280;49692;55.052;73.310;2022-09-09T12:40:34;100072.25;;;19.36;34.63
61874;BME280;49692;55.052;73.310;2022-09-09T12:43:22;100075.00;;;19.34;34.66
61874;BME280;49692;55.052;73.310;2022-09-09T12:46:08;100076.34;;;19.40;35.21
61874;BME280;49692;55.052;73.310;2022-09-09T12:48:42;100063.78;;;19.18;35.09
61874;BME280;49692;55.052;73.310;2022-09-09T12:51:26;100079.97;;;18.90;35.69
61874;BME280;49692;55.052;73.310;2022-09-09T12:54:04;100076.19;;;18.68;36.72
61874;BME280;49692;55.052;73.310;2022-09-09T12:56:32;100082.97;;;18.35;36.69
61874;BME280;49692;55.052;73.310;2022-09-09T12:59:04;100083.81;;;18.36;37.16
61874;BME280;49692;55.052;73.310;2022-09-09T13:01:43;100080.72;;;17.90;37.91
61874;BME280;49692;55.052;73.310;2022-09-09T13:04:22;100090.41;;;18.04;38.01
61874;BME280;49692;55.052;73.310;2022-09-09T13:06:53;100090.19;;;17.82;38.37
61874;BME280;49692;55.052;73.310;2022-09-09T13:09:26;100087.84;;;17.90;38.63
61874;BME280;49692;55.052;73.310;2022-09-09T13:11:58;100086.09;;;17.63;39.17
61874;BME280;49692;55.052;73.310;2022-09-09T13:14:43;100087.28;;;17.72;39.65
61874;BME280;49692;55.052;73.310;2022-09-09T13:17:28;100088.44;;;17.68;39.84
61874;BME280;49692;55.052;73.310;2022-09-09T13:19:59;100092.25;;;17.51;41.11
61874;BME280;49692;55.052;73.310;2022-09-09T13:22:37;100091.88;;;17.29;41.57
61874;BME280;49692;55.052;73.310;2022-09-09T13:28:04;100088.91;;;17.07;41.84
61874;BME280;49692;55.052;73.310;2022-09-09T13:30:39;100092.06;;;16.99;42.38
61874;BME280;49692;55.052;73.310;2022-09-09T13:35:58;100092.00;;;16.86;42.40
61874;BME280;49692;55.052;73.310;2022-09-09T13:38:35;100096.72;;;16.81;42.28
61874;BME280;49692;55.052;73.310;2022-09-09T13:41:04;100099.84;;;16.73;42.61
61874;BME280;49692;55.052;73.310;2022-09-09T13:43:38;100111.53;;;16.70;42.99
61874;BME280;49692;55.052;73.310;2022-09-09T13:46:36;100103.19;;;16.62;43.04
61874;BME280;49692;55.052;73.310;2022-09-09T13:49:22;100107.84;;;16.59;42.99
61874;BME280;49692;55.052;73.310;2022-09-09T13:52:08;100104.81;;;16.50;43.74
61874;BME280;49692;55.052;73.310;2022-09-09T13:54:35;100110.59;;;16.28;44.78
61874;BME280;49692;55.052;73.310;2022-09-09T13:57:02;100107.56;;;16.20;44.37
61874;BME280;49692;55.052;73.310;2022-09-09T13:59:30;100121.28;;;16.12;44.92
61874;BME280;49692;55.052;73.310;2022-09-09T14:02:03;100120.91;;;16.04;44.64
61874;BME280;49692;55.052;73.310;2022-09-09T14:04:30;100124.22;;;16.07;44.60
61874;BME280;49692;55.052;73.310;2022-09-09T14:06:59;100123.56;;;16.04;44.76
61874;BME280;49692;55.052;73.310;2022-09-09T14:09:26;100125.66;;;15.83;47.37
61874;BME280;49692;55.052;73.310;2022-09-09T14:12:04;100124.50;;;15.72;47.57
61874;BME280;49692;55.052;73.310;2022-09-09T14:14:32;100138.34;;;15.61;47.46
61874;BME280;49692;55.052;73.310;2022-09-09T14:16:58;100135.31;;;15.53;48.06
61874;BME280;49692;55.052;73.310;2022-09-09T14:19:28;100135.53;;;15.34;49.73
61874;BME280;49692;55.052;73.310;2022-09-09T14:22:05;100128.44;;;15.18;51.26
61874;BME280;49692;55.052;73.310;2022-09-09T14:24:33;100138.94;;;15.04;51.76
61874;BME280;49692;55.052;73.310;2022-09-09T14:27:01;100145.97;;;15.05;52.89
61874;BME280;49692;55.052;73.310;2022-09-09T14:29:29;100142.09;;;14.95;52.73
61874;BME280;49692;55.052;73.310;2022-09-09T14:32:05;100145.00;;;14.74;54.01
61874;BME280;49692;55.052;73.310;2022-09-09T14:34:31;100149.94;;;14.64;54.12
61874;BME280;49692;55.052;73.310;2022-09-09T14:37:00;100148.69;;;14.54;54.18